Time;durP1;ratioP1;P1;durP2;ratioP2;P2;SDS_P1;SDS_P2;PMS_P1;PMS_P2;Temp;Humidity;BMP_temperature;BMP_pressure;BME280_temperature;BME280_humidity;BME280_pressure;Samples;Min_cycle;Max_cycle;Signal;HPM_P1;HPM_P2
2022/06/23 00:02:25;;;;;;;;;;;24.50;99.90;;;;;;4996332;28;19917;-71
2022/06/23 00:04:52;;;;;;;;;;;24.50;99.90;;;;;;4992140;28;19952;-72
2022/06/23 00:07:29;;;;;;;;;;;24.60;99.90;;;;;;4994489;28;19917;-72
2022/06/23 00:09:56;;;;;;;;;;;24.60;99.90;;;;;;4980722;28;20366;-72
2022/06/23 00:12:30;;;;;;;;;;;24.60;99.90;;;;;;5011771;28;19909;-72
2022/06/23 00:14:55;;;;;;;;;;;24.60;99.90;;;;;;5008626;28;20007;-72
2022/06/23 00:17:31;;;;;;;;;;;24.60;99.90;;;;;;5005987;28;19974;-72
2022/06/23 00:19:59;;;;;;;;;;;24.50;99.90;;;;;;5001683;28;19909;-72
2022/06/23 00:22:26;;;;;;;;;;;24.50;99.90;;;;;;5000986;28;19916;-72
2022/06/23 00:24:55;;;;;;;;;;;24.50;99.90;;;;;;4997485;28;19909;-72
2022/06/23 00:27:22;;;;;;;;;;;24.50;99.90;;;;;;5001074;28;20370;-72
2022/06/23 00:29:48;;;;;;;;;;;24.50;99.90;;;;;;5000384;28;19977;-72
2022/06/23 00:32:14;;;;;;;;;;;24.50;99.90;;;;;;5002784;28;19910;-72
2022/06/23 00:34:41;;;;;;;;;;;24.50;99.90;;;;;;5001420;28;19924;-72
2022/06/23 00:37:18;;;;;;;;;;;24.60;99.90;;;;;;4997004;28;19916;-72
2022/06/23 00:39:59;;;;;;;;;;;24.50;99.90;;;;;;4998574;28;20441;-72
2022/06/23 00:42:27;;;;;;;;;;;24.50;99.90;;;;;;4995130;28;20646;-72
2022/06/23 00:44:59;;;;;;;;;;;24.40;99.90;;;;;;5002476;28;19957;-72
2022/06/23 00:47:28;;;;;;;;;;;24.50;99.90;;;;;;5000717;28;20486;-72
2022/06/23 00:49:57;;;;;;;;;;;24.40;99.90;;;;;;5001390;28;20303;-72
2022/06/23 00:52:33;;;;;;;;;;;24.40;99.90;;;;;;5000221;28;19910;-72
2022/06/23 00:55:01;;;;;;;;;;;24.50;99.90;;;;;;4982233;28;19964;-72
2022/06/23 00:57:30;;;;;;;;;;;24.50;99.90;;;;;;5006165;28;19909;-72
2022/06/23 01:00:05;;;;;;;;;;;24.50;99.90;;;;;;5000959;28;19918;-72
2022/06/23 01:02:37;;;;;;;;;;;24.50;99.90;;;;;;5000798;28;20000;-72
2022/06/23 01:05:02;;;;;;;;;;;24.50;99.90;;;;;;5001104;28;20045;-71
2022/06/23 01:07:37;;;;;;;;;;;24.40;99.90;;;;;;5001127;28;19944;-71
2022/06/23 01:10:21;;;;;;;;;;;24.40;99.90;;;;;;5003012;28;19995;-71
2022/06/23 01:13:05;;;;;;;;;;;24.40;99.90;;;;;;4997231;28;19913;-71
2022/06/23 01:15:42;;;;;;;;;;;24.30;99.90;;;;;;5008581;28;19913;-71
2022/06/23 01:18:26;;;;;;;;;;;24.30;99.90;;;;;;5000209;28;19905;-71
2022/06/23 01:20:54;;;;;;;;;;;24.30;99.90;;;;;;5002216;28;19964;-71
2022/06/23 01:23:38;;;;;;;;;;;24.40;99.90;;;;;;5002046;28;19960;-71
2022/06/23 01:26:04;;;;;;;;;;;24.40;99.90;;;;;;5000328;28;19916;-71
2022/06/23 01:28:32;;;;;;;;;;;24.40;99.90;;;;;;5000331;28;19996;-71
2022/06/23 01:31:03;;;;;;;;;;;24.40;99.90;;;;;;4996529;28;19915;-71
2022/06/23 01:33:33;;;;;;;;;;;24.40;99.90;;;;;;4998207;28;20451;-71
2022/06/23 01:36:02;;;;;;;;;;;24.30;99.90;;;;;;5000338;28;19956;-71
2022/06/23 01:38:45;;;;;;;;;;;24.30;99.90;;;;;;5004223;28;20426;-71
2022/06/23 01:41:16;;;;;;;;;;;24.30;99.90;;;;;;5005582;28;19948;-71
2022/06/23 01:44:08;;;;;;;;;;;24.20;99.90;;;;;;5000088;28;20368;-71
2022/06/23 01:46:35;;;;;;;;;;;24.20;99.90;;;;;;4997995;28;20366;-71
2022/06/23 01:49:12;;;;;;;;;;;24.20;99.90;;;;;;4998842;28;20012;-71
2022/06/23 01:51:45;;;;;;;;;;;24.30;99.90;;;;;;4997532;28;19906;-71
2022/06/23 01:54:12;;;;;;;;;;;24.30;99.90;;;;;;4997974;28;19969;-71
2022/06/23 01:56:49;;;;;;;;;;;24.30;99.90;;;;;;4999476;28;19916;-71
2022/06/23 01:59:18;;;;;;;;;;;24.30;99.90;;;;;;4999892;28;19996;-71
2022/06/23 02:01:52;;;;;;;;;;;24.30;99.90;;;;;;4999630;28;19969;-71
2022/06/23 02:04:27;;;;;;;;;;;24.30;99.90;;;;;;4998439;28;19910;-71
2022/06/23 02:06:55;;;;;;;;;;;24.30;99.90;;;;;;5007816;28;20365;-72
2022/06/23 02:09:23;;;;;;;;;;;24.30;99.90;;;;;;4999096;28;20374;-71
2022/06/23 02:11:50;;;;;;;;;;;24.30;99.90;;;;;;4999679;28;19910;-71
2022/06/23 02:14:22;;;;;;;;;;;24.30;99.90;;;;;;4999469;28;19925;-72
2022/06/23 02:16:58;;;;;;;;;;;24.40;99.90;;;;;;4999501;28;19909;-72
2022/06/23 02:19:29;;;;;;;;;;;24.30;99.90;;;;;;4998871;28;19960;-72
2022/06/23 02:22:10;;;;;;;;;;;24.30;99.90;;;;;;4980199;28;20290;-72
2022/06/23 02:24:44;;;;;;;;;;;24.30;99.90;;;;;;4995601;28;20004;-71
2022/06/23 02:27:15;;;;;;;;;;;24.20;99.90;;;;;;4997052;28;19914;-71
2022/06/23 02:29:41;;;;;;;;;;;24.20;99.90;;;;;;5000698;28;20282;-71
2022/06/23 02:32:36;;;;;;;;;;;24.20;99.90;;;;;;4999464;28;19956;-71
2022/06/23 02:35:08;;;;;;;;;;;24.20;99.90;;;;;;4985987;28;20378;-71
2022/06/23 02:38:03;;;;;;;;;;;24.10;99.90;;;;;;4998962;28;19913;-72
2022/06/23 02:40:34;;;;;;;;;;;24.20;99.90;;;;;;4986708;28;19910;-72
2022/06/23 02:43:11;;;;;;;;;;;24.20;99.90;;;;;;4980490;28;20417;-71
2022/06/23 02:45:40;;;;;;;;;;;24.10;99.90;;;;;;4996784;28;20318;-72
2022/06/23 02:48:08;;;;;;;;;;;24.10;99.90;;;;;;4998668;28;19933;-72
2022/06/23 02:50:53;;;;;;;;;;;24.10;99.90;;;;;;4999092;28;19924;-72
2022/06/23 02:53:24;;;;;;;;;;;24.00;99.90;;;;;;4998851;28;20343;-72
2022/06/23 02:55:56;;;;;;;;;;;24.00;99.90;;;;;;4999342;28;19940;-72
2022/06/23 02:58:28;;;;;;;;;;;24.00;99.90;;;;;;4997893;28;19913;-72
2022/06/23 03:00:59;;;;;;;;;;;24.00;99.90;;;;;;4993466;28;20294;-72
2022/06/23 03:03:25;;;;;;;;;;;24.00;99.90;;;;;;5010315;28;19909;-72
2022/06/23 03:05:50;;;;;;;;;;;24.00;99.90;;;;;;4999229;28;19932;-72
2022/06/23 03:08:19;;;;;;;;;;;24.00;99.90;;;;;;4999952;28;19909;-72
2022/06/23 03:11:08;;;;;;;;;;;23.90;99.90;;;;;;4999016;28;19917;-72
2022/06/23 03:13:54;;;;;;;;;;;23.90;99.90;;;;;;4947793;29;19958;-72
2022/06/23 03:16:19;;;;;;;;;;;23.90;99.90;;;;;;4936188;29;19914;-72
2022/06/23 03:18:55;;;;;;;;;;;23.80;99.90;;;;;;4934293;29;19907;-72
2022/06/23 03:21:23;;;;;;;;;;;23.90;99.90;;;;;;4938203;29;19906;-72
2022/06/23 03:23:57;;;;;;;;;;;23.80;99.90;;;;;;4937671;29;19935;-71
2022/06/23 03:26:33;;;;;;;;;;;23.80;99.90;;;;;;4937462;29;20391;-72
2022/06/23 03:29:04;;;;;;;;;;;23.80;99.90;;;;;;4937549;29;19918;-72
2022/06/23 03:31:48;;;;;;;;;;;23.80;99.90;;;;;;4937559;29;19914;-71
2022/06/23 03:34:14;;;;;;;;;;;23.80;99.90;;;;;;4935387;29;20422;-72
2022/06/23 03:36:42;;;;;;;;;;;23.80;99.90;;;;;;4935536;29;19915;-72
2022/06/23 03:42:14;;;;;;;;;;;23.90;99.90;;;;;;4937733;29;19970;-72
2022/06/23 03:44:40;;;;;;;;;;;23.80;99.90;;;;;;4937348;29;20001;-72
2022/06/23 03:47:12;;;;;;;;;;;23.80;99.90;;;;;;4937250;29;20441;-72
2022/06/23 03:49:45;;;;;;;;;;;23.80;99.90;;;;;;4944221;28;19910;-72
2022/06/23 03:52:20;;;;;;;;;;;23.80;99.90;;;;;;5009803;28;19933;-72
2022/06/23 03:54:47;;;;;;;;;;;23.80;99.90;;;;;;4994257;28;19956;-72
2022/06/23 03:57:33;;;;;;;;;;;23.80;99.90;;;;;;4998309;28;19910;-72
2022/06/23 04:00:01;;;;;;;;;;;23.80;99.90;;;;;;5001039;28;19928;-72
2022/06/23 04:02:34;;;;;;;;;;;23.80;99.90;;;;;;5002059;28;19917;-71
2022/06/23 04:05:06;;;;;;;;;;;23.80;99.90;;;;;;5002180;28;20396;-71
2022/06/23 04:07:34;;;;;;;;;;;23.80;99.90;;;;;;5000993;28;19913;-71
2022/06/23 04:10:04;;;;;;;;;;;23.80;99.90;;;;;;4998128;28;19959;-72
2022/06/23 04:12:31;;;;;;;;;;;23.70;99.90;;;;;;5000091;28;19952;-72
2022/06/23 04:15:02;;;;;;;;;;;23.60;99.90;;;;;;5001919;28;19914;-72
2022/06/23 04:17:41;;;;;;;;;;;23.60;99.90;;;;;;5008437;28;19913;-72
2022/06/23 04:20:29;;;;;;;;;;;23.60;99.90;;;;;;5007569;28;19913;-72
2022/06/23 04:22:59;;;;;;;;;;;23.60;99.90;;;;;;5001643;28;19910;-72
2022/06/23 04:25:31;;;;;;;;;;;23.60;99.90;;;;;;5002774;28;19909;-72
2022/06/23 04:27:59;;;;;;;;;;;23.50;99.90;;;;;;4982215;28;19968;-72
2022/06/23 04:30:27;;;;;;;;;;;23.60;99.90;;;;;;5008413;28;20000;-72
2022/06/23 04:32:54;;;;;;;;;;;23.50;99.90;;;;;;5002920;28;19910;-71
2022/06/23 04:35:24;;;;;;;;;;;23.60;99.90;;;;;;5001281;28;19925;-78
2022/06/23 04:37:56;;;;;;;;;;;23.50;99.90;;;;;;5001583;28;19922;-78
2022/06/23 04:40:24;;;;;;;;;;;23.60;99.90;;;;;;5000300;28;19913;-79
2022/06/23 04:42:56;;;;;;;;;;;23.50;99.90;;;;;;5009376;23;19933;-79
2022/06/23 04:45:26;;;;;;;;;;;23.60;99.90;;;;;;5014121;28;19909;-76
2022/06/23 04:47:53;;;;;;;;;;;23.60;99.90;;;;;;5015381;28;19917;-75
2022/06/23 04:50:32;;;;;;;;;;;23.60;99.90;;;;;;5015581;28;19909;-75
2022/06/23 04:52:58;;;;;;;;;;;23.60;99.90;;;;;;5015093;28;19910;-74
2022/06/23 04:55:26;;;;;;;;;;;23.60;99.90;;;;;;5013530;28;19909;-75
2022/06/23 04:58:04;;;;;;;;;;;23.60;99.90;;;;;;5015409;28;19913;-75
2022/06/23 05:00:37;;;;;;;;;;;23.70;99.90;;;;;;5010988;28;19913;-75
2022/06/23 05:03:21;;;;;;;;;;;23.80;99.90;;;;;;5015690;28;20374;-75
2022/06/23 05:05:54;;;;;;;;;;;23.80;99.90;;;;;;5015255;28;20282;-74
2022/06/23 05:08:26;;;;;;;;;;;23.80;99.90;;;;;;5014591;28;19917;-74
2022/06/23 05:10:59;;;;;;;;;;;23.80;99.90;;;;;;5012552;28;19915;-75
2022/06/23 05:13:27;;;;;;;;;;;23.90;99.90;;;;;;5014085;28;20390;-74
2022/06/23 05:15:55;;;;;;;;;;;23.90;99.90;;;;;;5030799;28;19909;-79
2022/06/23 05:18:24;;;;;;;;;;;23.90;99.90;;;;;;5013525;28;19936;-78
2022/06/23 05:20:49;;;;;;;;;;;24.00;99.90;;;;;;5014635;28;20271;-80
2022/06/23 05:23:20;;;;;;;;;;;24.00;99.90;;;;;;5007838;28;19913;-77
2022/06/23 05:25:47;;;;;;;;;;;24.10;99.90;;;;;;5005541;28;20350;-81
2022/06/23 05:28:18;;;;;;;;;;;24.00;99.90;;;;;;5017909;28;19931;-77
2022/06/23 05:30:49;;;;;;;;;;;24.00;99.90;;;;;;5020874;28;19972;-80
2022/06/23 05:33:16;;;;;;;;;;;24.10;99.90;;;;;;5012313;28;19909;-79
2022/06/23 05:35:47;;;;;;;;;;;24.10;99.90;;;;;;5005443;28;19909;-81
2022/06/23 05:38:20;;;;;;;;;;;24.10;99.90;;;;;;5009748;28;19909;-79
2022/06/23 05:40:54;;;;;;;;;;;24.10;99.90;;;;;;5006212;28;20325;-77
2022/06/23 05:43:20;;;;;;;;;;;24.20;99.90;;;;;;5029895;28;19963;-77
2022/06/23 05:45:51;;;;;;;;;;;24.10;99.90;;;;;;5014055;28;19913;-78
2022/06/23 05:48:19;;;;;;;;;;;24.20;99.90;;;;;;5013704;28;20778;-78
2022/06/23 05:50:53;;;;;;;;;;;24.20;99.90;;;;;;5014001;28;19909;-80
2022/06/23 05:53:22;;;;;;;;;;;24.10;99.90;;;;;;5012285;28;19972;-77
2022/06/23 05:55:53;;;;;;;;;;;24.20;99.90;;;;;;5013484;28;20420;-75
2022/06/23 05:58:22;;;;;;;;;;;24.20;99.90;;;;;;5013728;28;20382;-76
2022/06/23 06:00:56;;;;;;;;;;;24.20;99.90;;;;;;5028555;28;19967;-77
2022/06/23 06:03:31;;;;;;;;;;;24.20;99.90;;;;;;5013258;28;19928;-76
2022/06/23 06:06:00;;;;;;;;;;;24.30;99.90;;;;;;5013775;28;20064;-77
2022/06/23 06:08:29;;;;;;;;;;;24.30;99.90;;;;;;5013395;28;19999;-76
2022/06/23 06:10:55;;;;;;;;;;;24.40;99.90;;;;;;5014123;28;20000;-76
2022/06/23 06:13:24;;;;;;;;;;;24.40;99.90;;;;;;5013613;28;19943;-76
2022/06/23 06:15:51;;;;;;;;;;;24.30;99.90;;;;;;5013723;28;19964;-76
2022/06/23 06:18:20;;;;;;;;;;;24.30;99.90;;;;;;5013004;28;19909;-75
2022/06/23 06:20:46;;;;;;;;;;;24.40;99.90;;;;;;5013425;28;19910;-76
2022/06/23 06:23:14;;;;;;;;;;;24.30;99.90;;;;;;5013284;28;19932;-75
2022/06/23 06:25:43;;;;;;;;;;;24.30;99.90;;;;;;5013088;28;19909;-75
2022/06/23 06:28:28;;;;;;;;;;;24.30;99.90;;;;;;5013545;28;19917;-75
2022/06/23 06:31:04;;;;;;;;;;;24.30;99.90;;;;;;5011715;28;20094;-76
2022/06/23 06:33:29;;;;;;;;;;;24.30;99.90;;;;;;5008821;28;19940;-74
2022/06/23 06:35:55;;;;;;;;;;;24.40;99.90;;;;;;5013165;28;19909;-74
2022/06/23 06:38:22;;;;;;;;;;;24.50;99.90;;;;;;5012759;28;20396;-73
2022/06/23 06:40:50;;;;;;;;;;;24.60;99.90;;;;;;5013239;28;20386;-75
2022/06/23 06:43:18;;;;;;;;;;;24.60;99.90;;;;;;5013107;28;19924;-75
2022/06/23 06:45:44;;;;;;;;;;;24.70;99.90;;;;;;5011582;28;19920;-80
2022/06/23 06:48:14;;;;;;;;;;;24.70;99.90;;;;;;5010713;28;19913;-78
2022/06/23 06:50:41;;;;;;;;;;;24.60;99.90;;;;;;5012254;28;19905;-81
2022/06/23 06:53:14;;;;;;;;;;;24.70;99.90;;;;;;5019872;23;19991;-73
2022/06/23 06:55:55;;;;;;;;;;;24.70;99.90;;;;;;5013584;28;19909;-74
2022/06/23 06:58:30;;;;;;;;;;;24.90;99.90;;;;;;5013250;28;19909;-75
2022/06/23 07:00:56;;;;;;;;;;;25.00;99.90;;;;;;5002480;28;19913;-75
2022/06/23 07:03:23;;;;;;;;;;;25.00;99.90;;;;;;4992628;28;19916;-75
2022/06/23 07:05:53;;;;;;;;;;;25.10;99.90;;;;;;5009104;28;19976;-77
2022/06/23 07:08:19;;;;;;;;;;;25.10;99.90;;;;;;4997537;28;19920;-74
2022/06/23 07:10:52;;;;;;;;;;;25.10;99.90;;;;;;5002839;28;19909;-75
2022/06/23 07:13:31;;;;;;;;;;;25.10;99.90;;;;;;5002799;28;19913;-74
2022/06/23 07:16:00;;;;;;;;;;;25.20;99.90;;;;;;5009454;28;19909;-72
2022/06/23 07:18:37;;;;;;;;;;;25.30;99.90;;;;;;5005275;28;19909;-73
2022/06/23 07:21:03;;;;;;;;;;;25.30;99.90;;;;;;5010738;28;19913;-73
2022/06/23 07:23:42;;;;;;;;;;;25.40;99.90;;;;;;5009163;28;20389;-73
2022/06/23 07:26:16;;;;;;;;;;;25.50;99.90;;;;;;5010020;28;19964;-73
2022/06/23 07:28:44;;;;;;;;;;;25.60;99.90;;;;;;5009478;28;19918;-73
2022/06/23 07:31:15;;;;;;;;;;;25.70;99.90;;;;;;5009846;28;19916;-76
2022/06/23 07:33:44;;;;;;;;;;;25.60;99.90;;;;;;5010826;28;19944;-75
2022/06/23 07:36:24;;;;;;;;;;;25.70;99.90;;;;;;5013252;28;19909;-73
2022/06/23 07:38:50;;;;;;;;;;;25.60;99.90;;;;;;5017931;28;20004;-72
2022/06/23 07:41:48;;;;;;;;;;;25.60;99.90;;;;;;5016564;28;20420;-74
2022/06/23 07:44:25;;;;;;;;;;;25.60;99.90;;;;;;4975664;28;19925;-74
2022/06/23 07:46:51;;;;;;;;;;;25.50;99.90;;;;;;4975566;28;19918;-74
2022/06/23 07:49:17;;;;;;;;;;;25.60;99.90;;;;;;4975828;28;20421;-73
2022/06/23 07:51:43;;;;;;;;;;;25.60;99.90;;;;;;4976074;28;19914;-73
2022/06/23 07:54:15;;;;;;;;;;;25.60;99.90;;;;;;4972717;28;19918;-74
2022/06/23 07:56:44;;;;;;;;;;;25.70;99.90;;;;;;4973104;28;19925;-73
2022/06/23 07:59:11;;;;;;;;;;;25.80;99.90;;;;;;4974062;28;19949;-73
2022/06/23 08:01:44;;;;;;;;;;;25.80;99.90;;;;;;4967954;28;19913;-73
2022/06/23 08:04:17;;;;;;;;;;;25.80;99.90;;;;;;4968031;28;19910;-71
2022/06/23 08:06:43;;;;;;;;;;;26.00;99.90;;;;;;4969661;28;19914;-72
2022/06/23 08:09:29;;;;;;;;;;;25.80;99.90;;;;;;4951891;28;19953;-72
2022/06/23 08:18:01;;;;;;;;;;;25.80;99.90;;;;;;4968456;28;20424;-72
2022/06/23 08:20:28;;;;;;;;;;;25.80;99.90;;;;;;5000416;28;19913;-72
2022/06/23 08:22:54;;;;;;;;;;;25.90;99.90;;;;;;5010289;28;20369;-72
2022/06/23 08:25:20;;;;;;;;;;;25.90;99.90;;;;;;5009725;28;19917;-72
2022/06/23 08:27:46;;;;;;;;;;;25.80;99.90;;;;;;5011119;28;19913;-73
2022/06/23 08:30:14;;;;;;;;;;;25.90;99.90;;;;;;5010349;28;19913;-72
2022/06/23 08:32:41;;;;;;;;;;;25.90;99.90;;;;;;5010979;28;19932;-72
2022/06/23 08:35:16;;;;;;;;;;;25.70;99.90;;;;;;5011176;28;19927;-73
2022/06/23 08:37:45;;;;;;;;;;;25.50;99.90;;;;;;5014806;28;20301;-72
2022/06/23 08:40:20;;;;;;;;;;;25.60;99.90;;;;;;5007060;28;20309;-73
2022/06/23 08:42:49;;;;;;;;;;;25.60;99.90;;;;;;5011770;28;19905;-73
2022/06/23 08:45:32;;;;;;;;;;;25.80;99.90;;;;;;5011052;28;19976;-72
2022/06/23 08:48:05;;;;;;;;;;;25.90;99.90;;;;;;5011119;28;19917;-72
2022/06/23 08:50:48;;;;;;;;;;;25.90;99.90;;;;;;5012395;28;19956;-73
2022/06/23 08:53:35;;;;;;;;;;;25.80;99.90;;;;;;5011382;28;20381;-73
2022/06/23 08:56:01;;;;;;;;;;;25.70;99.90;;;;;;5011469;28;19940;-73
2022/06/23 08:58:34;;;;;;;;;;;25.60;99.90;;;;;;5007265;28;19913;-73
2022/06/23 09:01:08;;;;;;;;;;;25.70;99.90;;;;;;4996058;28;19920;-73
2022/06/23 09:03:44;;;;;;;;;;;25.60;99.90;;;;;;5012627;28;19905;-72
2022/06/23 09:06:13;;;;;;;;;;;25.50;99.90;;;;;;5015540;28;19905;-73
2022/06/23 09:08:39;;;;;;;;;;;25.50;99.90;;;;;;5014768;28;19909;-73
2022/06/23 09:11:17;;;;;;;;;;;25.50;99.90;;;;;;5014476;28;19983;-72
2022/06/23 09:14:07;;;;;;;;;;;25.70;99.90;;;;;;5013456;28;20012;-73
2022/06/23 09:16:44;;;;;;;;;;;25.90;99.90;;;;;;5014151;28;20278;-73
2022/06/23 09:19:29;;;;;;;;;;;25.80;99.90;;;;;;5015278;28;19913;-73
2022/06/23 09:22:13;;;;;;;;;;;25.90;99.90;;;;;;5030757;28;19910;-73
2022/06/23 09:24:50;;;;;;;;;;;25.90;99.90;;;;;;5012083;28;19905;-73
2022/06/23 09:27:19;;;;;;;;;;;26.10;99.90;;;;;;5013386;28;20385;-73
2022/06/23 09:29:58;;;;;;;;;;;26.20;99.90;;;;;;5014461;28;19955;-73
2022/06/23 09:32:31;;;;;;;;;;;26.20;99.90;;;;;;5014812;28;19946;-73
2022/06/23 09:34:56;;;;;;;;;;;26.30;99.90;;;;;;5015081;28;19929;-73
2022/06/23 09:37:48;;;;;;;;;;;26.30;99.90;;;;;;5015889;28;20336;-73
2022/06/23 09:40:19;;;;;;;;;;;26.30;99.90;;;;;;4982663;28;19909;-72
2022/06/23 09:42:51;;;;;;;;;;;26.50;99.90;;;;;;4993560;28;20362;-73
2022/06/23 09:45:49;;;;;;;;;;;26.50;99.90;;;;;;5001529;28;19916;-73
2022/06/23 09:48:33;;;;;;;;;;;26.50;99.90;;;;;;4896362;29;19918;-72
2022/06/23 09:51:07;;;;;;;;;;;26.20;99.90;;;;;;4895053;29;20344;-72
2022/06/23 09:53:33;;;;;;;;;;;26.00;99.90;;;;;;4895270;29;19923;-73
2022/06/23 09:56:13;;;;;;;;;;;25.90;99.90;;;;;;4895977;29;19933;-73
2022/06/23 09:58:42;;;;;;;;;;;26.00;99.90;;;;;;4896384;29;20318;-73
2022/06/23 10:01:16;;;;;;;;;;;26.20;99.90;;;;;;4896250;29;20001;-73
2022/06/23 10:03:42;;;;;;;;;;;26.30;99.90;;;;;;4895949;29;19915;-74
2022/06/23 10:06:21;;;;;;;;;;;26.30;99.90;;;;;;4897032;29;20292;-75
2022/06/23 10:09:09;;;;;;;;;;;26.20;99.90;;;;;;4896969;29;19920;-77
2022/06/23 10:11:37;;;;;;;;;;;26.20;99.90;;;;;;4895978;29;20396;-75
2022/06/23 10:14:20;;;;;;;;;;;26.10;99.90;;;;;;4895803;29;19941;-75
2022/06/23 10:16:52;;;;;;;;;;;26.20;99.90;;;;;;4903133;29;20003;-74
2022/06/23 10:19:26;;;;;;;;;;;26.20;99.90;;;;;;4920462;29;19994;-75
2022/06/23 10:21:54;;;;;;;;;;;26.20;99.90;;;;;;4932913;29;19942;-74
2022/06/23 10:24:20;;;;;;;;;;;26.20;99.90;;;;;;4975971;28;20366;-75
2022/06/23 10:26:57;;;;;;;;;;;26.20;99.90;;;;;;5011016;28;19916;-75
2022/06/23 10:29:26;;;;;;;;;;;26.20;99.90;;;;;;5012074;28;20362;-73
2022/06/23 10:32:10;;;;;;;;;;;26.20;99.90;;;;;;5012506;28;19996;-75
2022/06/23 10:34:42;;;;;;;;;;;26.30;99.90;;;;;;5012260;28;19917;-75
2022/06/23 10:37:13;;;;;;;;;;;26.50;99.90;;;;;;5011588;28;19913;-75
2022/06/23 10:39:54;;;;;;;;;;;26.70;99.90;;;;;;5011636;28;19909;-74
2022/06/23 10:42:25;;;;;;;;;;;26.70;99.90;;;;;;5012959;28;19975;-75
2022/06/23 10:44:51;;;;;;;;;;;26.50;99.90;;;;;;5012131;28;20321;-74
2022/06/23 10:47:16;;;;;;;;;;;26.30;99.90;;;;;;5011999;28;19909;-74
2022/06/23 10:49:51;;;;;;;;;;;26.60;99.90;;;;;;5011827;28;19996;-72
2022/06/23 10:52:32;;;;;;;;;;;26.80;99.90;;;;;;5010695;28;19916;-73
2022/06/23 10:55:04;;;;;;;;;;;26.90;99.90;;;;;;5010056;28;19918;-75
2022/06/23 10:57:29;;;;;;;;;;;26.90;99.90;;;;;;5011503;28;19988;-72
2022/06/23 11:00:04;;;;;;;;;;;26.80;99.90;;;;;;5010810;28;19968;-74
2022/06/23 11:02:49;;;;;;;;;;;26.70;99.90;;;;;;5012300;28;20408;-73
2022/06/23 11:05:27;;;;;;;;;;;26.80;99.90;;;;;;5011079;28;20377;-72
2022/06/23 11:07:52;;;;;;;;;;;27.00;99.90;;;;;;5010088;28;19963;-72
2022/06/23 11:10:24;;;;;;;;;;;27.00;99.90;;;;;;5015212;28;19909;-74
2022/06/23 11:12:49;;;;;;;;;;;26.90;99.90;;;;;;5015451;28;19917;-73
2022/06/23 11:15:27;;;;;;;;;;;26.70;99.90;;;;;;5016396;28;20285;-73
2022/06/23 11:17:53;;;;;;;;;;;27.00;99.90;;;;;;5015026;28;19910;-72
2022/06/23 11:20:37;;;;;;;;;;;27.00;99.90;;;;;;5015664;28;19909;-74
2022/06/23 11:23:06;;;;;;;;;;;26.90;99.90;;;;;;5015810;28;19909;-74
2022/06/23 11:25:43;;;;;;;;;;;26.90;99.90;;;;;;5015711;28;19921;-74
2022/06/23 11:28:28;;;;;;;;;;;27.00;99.90;;;;;;5015060;28;19917;-75
2022/06/23 11:30:59;;;;;;;;;;;27.10;99.90;;;;;;5014902;28;19921;-72
2022/06/23 11:33:43;;;;;;;;;;;27.20;99.90;;;;;;5016244;28;19944;-72
2022/06/23 11:36:13;;;;;;;;;;;27.10;99.90;;;;;;5016199;28;20361;-72
2022/06/23 11:38:50;;;;;;;;;;;27.10;99.90;;;;;;5015469;28;19909;-72
2022/06/23 11:41:35;;;;;;;;;;;27.00;99.90;;;;;;5015449;28;19910;-72
2022/06/23 11:44:06;;;;;;;;;;;26.80;99.90;;;;;;5015062;28;19955;-72
2022/06/23 11:46:36;;;;;;;;;;;26.90;99.90;;;;;;5017495;28;19913;-73
2022/06/23 11:49:02;;;;;;;;;;;26.80;99.90;;;;;;5015551;28;19917;-73
2022/06/23 11:51:46;;;;;;;;;;;26.90;99.90;;;;;;5015680;28;19952;-71
2022/06/23 11:54:11;;;;;;;;;;;27.00;99.90;;;;;;5014348;28;19948;-71
2022/06/23 11:56:37;;;;;;;;;;;27.00;99.90;;;;;;5014863;28;19952;-72
2022/06/23 11:59:14;;;;;;;;;;;26.90;99.90;;;;;;5015100;28;19917;-72
2022/06/23 12:01:39;;;;;;;;;;;27.10;99.90;;;;;;5014968;28;19909;-72
2022/06/23 12:04:11;;;;;;;;;;;27.10;99.90;;;;;;5015684;28;20012;-71
2022/06/23 12:06:37;;;;;;;;;;;27.10;99.90;;;;;;5015772;28;19905;-70
2022/06/23 12:09:11;;;;;;;;;;;27.20;99.90;;;;;;5011544;28;20392;-72
2022/06/23 12:11:37;;;;;;;;;;;27.20;99.90;;;;;;5014845;28;20423;-71
2022/06/23 12:14:07;;;;;;;;;;;27.40;99.90;;;;;;5016208;28;19917;-71
2022/06/23 12:16:36;;;;;;;;;;;27.50;99.90;;;;;;5014693;28;19917;-70
2022/06/23 12:19:05;;;;;;;;;;;27.10;99.90;;;;;;5014624;28;19913;-70
2022/06/23 12:21:49;;;;;;;;;;;27.20;99.90;;;;;;5015931;28;19951;-70
2022/06/23 12:24:21;;;;;;;;;;;27.30;99.90;;;;;;5015123;28;19992;-70
2022/06/23 12:26:50;;;;;;;;;;;27.20;99.90;;;;;;5009904;28;20375;-70
2022/06/23 12:29:19;;;;;;;;;;;27.20;99.90;;;;;;5011572;28;19931;-70
2022/06/23 12:31:53;;;;;;;;;;;27.30;99.90;;;;;;5013736;28;19913;-70
2022/06/23 12:34:31;;;;;;;;;;;27.50;99.90;;;;;;5012032;28;20016;-70
2022/06/23 12:37:04;;;;;;;;;;;27.50;99.90;;;;;;5013848;28;20373;-70
2022/06/23 12:39:47;;;;;;;;;;;27.20;99.90;;;;;;5015621;28;20423;-72
2022/06/23 12:42:23;;;;;;;;;;;27.20;99.90;;;;;;5015564;28;19924;-72
2022/06/23 12:45:07;;;;;;;;;;;27.10;99.90;;;;;;5013581;28;20008;-72
2022/06/23 12:47:42;;;;;;;;;;;27.10;99.90;;;;;;5006391;28;19960;-72
2022/06/23 12:50:43;;;;;;;;;;;27.30;99.90;;;;;;5010042;28;19909;-72
2022/06/23 12:53:21;;;;;;;;;;;27.20;99.90;;;;;;4966643;28;19921;-71
2022/06/23 12:56:05;;;;;;;;;;;27.20;99.90;;;;;;4963236;28;20350;-71
2022/06/23 12:58:38;;;;;;;;;;;27.30;99.90;;;;;;4953652;28;19918;-71
2022/06/23 13:01:08;;;;;;;;;;;27.10;99.90;;;;;;4963529;28;19910;-71
2022/06/23 13:03:52;;;;;;;;;;;27.00;99.90;;;;;;4952332;28;20423;-71
2022/06/23 13:06:21;;;;;;;;;;;27.10;99.90;;;;;;4954796;28;19938;-71
2022/06/23 13:08:54;;;;;;;;;;;27.20;99.90;;;;;;4962349;28;20382;-71
2022/06/23 13:11:29;;;;;;;;;;;27.20;99.90;;;;;;4964055;28;20714;-71
2022/06/23 13:13:57;;;;;;;;;;;27.10;99.90;;;;;;4968195;28;20421;-71
2022/06/23 13:16:28;;;;;;;;;;;26.90;99.90;;;;;;4968759;28;20342;-76
2022/06/23 13:18:54;;;;;;;;;;;27.00;99.90;;;;;;4971042;28;19918;-76
2022/06/23 13:21:22;;;;;;;;;;;27.10;99.90;;;;;;4971022;28;20409;-77
2022/06/23 13:23:48;;;;;;;;;;;27.10;99.90;;;;;;4968207;28;19937;-76
2022/06/23 13:26:15;;;;;;;;;;;27.00;99.90;;;;;;4972443;28;19969;-71
2022/06/23 13:28:42;;;;;;;;;;;27.00;99.90;;;;;;5006940;28;19913;-73
2022/06/23 13:31:23;;;;;;;;;;;26.90;99.90;;;;;;5008934;28;19917;-73
2022/06/23 13:33:57;;;;;;;;;;;26.90;99.90;;;;;;5009164;28;20076;-73
2022/06/23 13:36:26;;;;;;;;;;;26.70;99.90;;;;;;5010145;28;20333;-71
2022/06/23 13:38:57;;;;;;;;;;;26.90;99.90;;;;;;5009792;28;19951;-73
2022/06/23 13:41:37;;;;;;;;;;;26.80;99.90;;;;;;5009582;28;19991;-73
2022/06/23 13:44:09;;;;;;;;;;;26.60;99.90;;;;;;5008748;28;19909;-73
2022/06/23 13:46:41;;;;;;;;;;;26.50;99.90;;;;;;5008173;28;19916;-73
2022/06/23 13:49:20;;;;;;;;;;;26.80;99.90;;;;;;5008529;28;19912;-72
2022/06/23 13:51:54;;;;;;;;;;;26.90;99.90;;;;;;5009268;28;19913;-72
2022/06/23 13:54:20;;;;;;;;;;;27.10;99.90;;;;;;5009254;28;19917;-73
2022/06/23 13:56:59;;;;;;;;;;;27.10;99.90;;;;;;5009473;28;20381;-72
2022/06/23 13:59:24;;;;;;;;;;;27.00;99.90;;;;;;5008957;28;19913;-73
2022/06/23 14:01:59;;;;;;;;;;;26.90;99.90;;;;;;5009102;28;20289;-73
2022/06/23 14:04:28;;;;;;;;;;;27.10;99.90;;;;;;5003825;28;19967;-72
2022/06/23 14:07:13;;;;;;;;;;;27.30;99.90;;;;;;5008238;28;19910;-71
2022/06/23 14:09:45;;;;;;;;;;;26.90;99.90;;;;;;5017678;28;20482;-71
2022/06/23 14:12:29;;;;;;;;;;;27.00;99.90;;;;;;5010158;28;19945;-71
2022/06/23 14:14:59;;;;;;;;;;;26.90;99.90;;;;;;5007560;28;19918;-71
2022/06/23 14:17:34;;;;;;;;;;;26.90;99.90;;;;;;5006168;28;19924;-72
2022/06/23 14:20:09;;;;;;;;;;;27.00;99.90;;;;;;5006069;28;19909;-71
2022/06/23 14:22:40;;;;;;;;;;;27.00;99.90;;;;;;5006557;28;19921;-71
2022/06/23 14:25:20;;;;;;;;;;;27.10;99.90;;;;;;5007383;28;19948;-71
2022/06/23 14:27:55;;;;;;;;;;;27.00;99.90;;;;;;5008163;28;19906;-73
2022/06/23 14:30:24;;;;;;;;;;;27.00;99.90;;;;;;5007343;28;19909;-74
2022/06/23 14:33:06;;;;;;;;;;;27.20;99.90;;;;;;5001919;28;19920;-72
2022/06/23 14:35:35;;;;;;;;;;;27.10;99.90;;;;;;5003981;28;19964;-70
2022/06/23 14:38:20;;;;;;;;;;;27.10;99.90;;;;;;5007024;28;19913;-72
2022/06/23 14:41:06;;;;;;;;;;;27.30;99.90;;;;;;5010360;28;19947;-71
2022/06/23 14:43:55;;;;;;;;;;;27.40;99.90;;;;;;5000706;28;19913;-72
2022/06/23 14:46:42;;;;;;;;;;;27.10;99.90;;;;;;5015051;28;19917;-71
2022/06/23 14:49:30;;;;;;;;;;;27.20;99.90;;;;;;5022569;28;20365;-72
2022/06/23 14:52:01;;;;;;;;;;;27.10;99.90;;;;;;5000573;28;20362;-72
2022/06/23 14:54:37;;;;;;;;;;;27.30;99.90;;;;;;5006703;28;19924;-71
2022/06/23 14:57:22;;;;;;;;;;;27.10;99.90;;;;;;5014452;28;19913;-71
2022/06/23 15:00:08;;;;;;;;;;;27.20;99.90;;;;;;5022264;28;19963;-72